Weather observations for the past three days for
Toronto Pearson International Airport
| Date | Time (edt) | Wind (mph) | Vis. (mi.) | Weather | Sky Cond. | Temperature (ºF) | Relative Humidity | Wind Chill (°F) | Heat Index (°F) | Pressure | Precipitation (in) | ||||||
|---|---|---|---|---|---|---|---|---|---|---|---|---|---|---|---|---|---|
| Air | Dwpt | 6 hour | altimeter (in) | sea level (mb) | 1 hr | 3 hr | 6 hr | ||||||||||
| Max. | Min. | ||||||||||||||||
| 07 | 15:00 | W 9 G 18 | 15.00 | Showers in Vicinity | SCT050 BKN062 BKN080 | 51.8 | 30.2 | 44% | 29.83 | 1010.8 | |||||||
| 07 | 14:00 | W 15 | 15.00 | Showers in Vicinity | SCT050 BKN090 | 51.8 | 30.2 | 44% | 29.83 | 1010.9 | |||||||
| 07 | 13:00 | SE 9 | 15.00 | Showers in Vicinity | BKN050 BKN080 | 48.2 | 35.6 | 62% | 45 | 29.85 | 1011.3 | ||||||
| 07 | 12:00 | S 8 | 15.00 | Mostly Cloudy | BKN048 BKN090 | 50 | 35.6 | 58% | 47 | 29.86 | 1011.6 | ||||||
| 07 | 11:00 | W 10 | 15.00 | Mostly Cloudy | BKN038 BKN095 | 50 | 33.8 | 54% | 46 | 29.87 | 1012.1 | ||||||
| 07 | 10:00 | Vrbl 3 | 15.00 | A Few Clouds | FEW030 FEW100 | 46.4 | 35.6 | 66% | 29.88 | 1012.5 | |||||||
| 07 | 09:00 | NW 6 | 15.00 | A Few Clouds | FEW020 FEW100 FEW260 | 44.6 | 35.6 | 71% | 42 | 29.9 | 1013.0 | ||||||
| 07 | 08:00 | Calm | 15.00 | A Few Clouds | FEW100 FEW260 | 41 | 33.8 | 76% | 29.89 | 1012.9 | |||||||
| 07 | 07:00 | W 5 | 15.00 | Partly Cloudy | FEW034 SCT100 SCT260 | 39.2 | 33.8 | 81% | 36 | 29.89 | 1012.9 | ||||||
| 07 | 06:00 | NW 8 | 15.00 | Mostly Cloudy | BKN075 BKN110 | 39.2 | 33.8 | 81% | 34 | 29.88 | 1012.6 | ||||||
| 07 | 05:00 | NW 15 | 15.00 | Light Rain | BKN045 OVC070 | 39.2 | 33.8 | 81% | 31 | 29.89 | 1012.7 | ||||||
| 07 | 04:00 | NW 14 | 15.00 | Mostly Cloudy | BKN059 BKN080 | 41 | 30.2 | 66% | 34 | 29.89 | 1012.8 | ||||||
| 07 | 03:00 | NW 7 | 15.00 | Overcast | BKN061 OVC080 | 41 | 26.6 | 57% | 37 | 29.89 | 1012.9 | ||||||
| 07 | 02:00 | N 3 | 15.00 | Overcast | BKN061 OVC084 | 41 | 24.8 | 53% | 29.89 | 1013.0 | |||||||
| 07 | 01:00 | N 3 | 15.00 | Mostly Cloudy | BKN065 BKN150 | 41 | 26.6 | 57% | 29.9 | 1013.3 | |||||||
| 07 | 00:00 | N 3 | 15.00 | Mostly Cloudy | FEW065 BKN150 | 39.2 | 26.6 | 61% | 29.91 | 1013.5 | |||||||
| 06 | 23:00 | N 8 | 15.00 | A Few Clouds | FEW070 FEW170 | 41 | 26.6 | 57% | 36 | 29.91 | 1013.4 | ||||||
| 06 | 22:00 | N 6 | 15.00 | A Few Clouds | FEW190 | 41 | 28.4 | 61% | 38 | 29.9 | 1013.3 | ||||||
| 06 | 21:00 | W 6 | 15.00 | Mostly Cloudy | BKN190 | 44.6 | 23 | 43% | 42 | 29.89 | 1012.8 | ||||||
| 06 | 20:00 | W 13 | 15.00 | Mostly Cloudy | FEW064 BKN210 | 46.4 | 24.8 | 43% | 41 | 29.88 | 1012.3 | ||||||
| 06 | 19:00 | N 7 | 15.00 | Mostly Cloudy | BKN049 BKN070 | 48.2 | 30.2 | 50% | 46 | 29.86 | 1011.9 | ||||||
| 06 | 18:00 | N 6 | 15.00 | Mostly Cloudy | SCT063 SCT150 BKN260 | 48.2 | 32 | 54% | 46 | 29.84 | 1011.2 | ||||||
| 06 | 17:00 | N 8 | 15.00 | Mostly Cloudy | FEW062 BKN150 BKN260 | 46.4 | 33.8 | 62% | 43 | 29.83 | 1010.8 | ||||||
| 06 | 16:00 | N 10 | 15.00 | Mostly Cloudy | FEW030 BKN050 BKN260 | 44.6 | 33.8 | 66% | 40 | 29.84 | 1011.0 | ||||||
| 06 | 15:00 | N 9 G 17 | 15.00 | Mostly Cloudy | BKN030 | 42.8 | 37.4 | 81% | 38 | 29.84 | 1011.1 | ||||||
| 06 | 14:00 | N 15 G 25 | 12.00 | Light Rain | FEW009 OVC020 | 41 | 37.4 | 87% | 34 | 29.83 | 1010.9 | ||||||
| 06 | 13:00 | N 13 | 10.00 | Light Drizzle | OVC007 | 42.8 | 41 | 93% | 37 | 29.83 | 1010.7 | ||||||
| 06 | 12:00 | E 5 | 6.00 | Light Drizzle Fog/Mist | BKN008 OVC013 | 46.4 | 42.8 | 87% | 45 | 29.82 | 1010.3 | ||||||
| 06 | 11:00 | SE 8 | 12.00 | Overcast | FEW008 OVC015 | 44.6 | 42.8 | 93% | 41 | 29.8 | 1009.6 | ||||||
| 06 | 10:00 | E 5 | 12.00 | Overcast | FEW008 OVC012 | 44.6 | 42.8 | 93% | 43 | 29.8 | 1009.6 | ||||||
| 06 | 09:00 | E 6 | 8.00 | Light Rain | SCT008 OVC015 | 44.6 | 41 | 87% | 42 | 29.8 | 1009.5 | ||||||
| 06 | 08:00 | E 7 | 6.00 | Light Drizzle Fog/Mist | SCT007 BKN014 OVC035 | 42.8 | 42.8 | 100% | 39 | 29.78 | 1008.9 | ||||||
| 06 | 07:00 | E 10 | 6.00 | Light Drizzle Fog/Mist | BKN004 OVC034 | 42.8 | 42.8 | 100% | 38 | 29.76 | 1008.4 | ||||||
| 06 | 06:00 | SE 7 | 6.00 | Light Rain Fog/Mist | SCT005 OVC040 | 42.8 | 42.8 | 100% | 39 | 29.76 | 1008.2 | ||||||
| 06 | 05:00 | SE 5 | 8.00 | Light Rain | SCT005 OVC032 | 44.6 | 42.8 | 93% | 43 | 29.77 | 1008.6 | ||||||
| 06 | 04:00 | SE 7 | 10.00 | Mostly Cloudy | FEW007 BKN050 BKN080 | 44.6 | 42.8 | 93% | 41 | 29.77 | 1008.8 | ||||||
| 06 | 03:00 | SE 10 | 8.00 | Light Rain | FEW022 OVC062 | 44.6 | 44.6 | 100% | 40 | 29.76 | 1008.3 | ||||||
| 06 | 02:00 | SE 12 | 8.00 | Rain | OVC044 | 46.4 | 44.6 | 93% | 42 | 29.77 | 1008.4 | ||||||
| 06 | 01:00 | SE 6 | 15.00 | Light Rain | BKN052 OVC090 | 48.2 | 44.6 | 87% | 46 | 29.79 | 1009.2 | ||||||
| 06 | 00:00 | SE 3 | 15.00 | Overcast | BKN100 OVC130 | 48.2 | 44.6 | 87% | 29.78 | 1008.9 | |||||||
| 05 | 23:00 | SE 3 | 15.00 | Mostly Cloudy | FEW040 BKN100 | 48.2 | 42.8 | 82% | 29.78 | 1008.7 | |||||||
| 05 | 22:00 | SE 6 | 15.00 | Mostly Cloudy | BKN078 BKN120 | 50 | 39.2 | 67% | 48 | 29.78 | 1008.8 | ||||||
| 05 | 21:00 | Vrbl 3 | 15.00 | Mostly Cloudy | SCT085 BKN120 | 51.8 | 35.6 | 54% | 29.76 | 1008.2 | |||||||
| 05 | 20:00 | NW 5 | 15.00 | Mostly Cloudy | BKN080 BKN220 | 51.8 | 35.6 | 54% | 29.75 | 1007.8 | |||||||
| 05 | 19:00 | NW 8 | 15.00 | Mostly Cloudy | SCT058 BKN081 BKN160 | 50 | 37.4 | 62% | 47 | 29.74 | 1007.4 | ||||||
| 05 | 18:00 | W 10 | 15.00 | Mostly Cloudy | FEW015 BKN058 | 50 | 41 | 71% | 46 | 29.75 | 1007.8 | ||||||
| 05 | 17:00 | W 10 | 15.00 | Mostly Cloudy | FEW015 BKN055 | 51.8 | 42.8 | 72% | 29.74 | 1007.4 | |||||||
| 05 | 16:00 | NW 16 | 15.00 | Light Rain | FEW015 FEW045 BKN059 | 51.8 | 42.8 | 72% | 29.72 | 1006.9 | |||||||
| 05 | 15:00 | W 14 G 22 | 15.00 | Light Rain | FEW025 FEW040 BKN053 OVC093 | 57.2 | 39.2 | 51% | 29.69 | 1005.7 | |||||||
| 05 | 14:00 | W 20 G 28 | 15.00 | Overcast | FEW052 BKN084 OVC260 | 59 | 39.2 | 48% | 29.68 | 1005.2 | |||||||
| 05 | 13:00 | W 16 | 15.00 | Overcast | FEW015 FEW043 FEW097 OVC260 | 60.8 | 44.6 | 55% | 29.64 | 1004.0 | |||||||
| 05 | 12:00 | W 17 | 15.00 | Overcast | FEW015 FEW055 OVC089 | 59 | 46.4 | 63% | 29.65 | 1004.1 | |||||||
| 05 | 11:00 | W 20 | 13.00 | Mostly Cloudy | SCT037 BKN070 | 59 | 50 | 72% | 29.61 | 1003.0 | |||||||
| 05 | 10:00 | W 20 | 15.00 | Mostly Cloudy | BKN028 BKN040 | 60.8 | 51.8 | 72% | 29.57 | 1001.6 | |||||||
| 05 | 09:00 | W 17 | 15.00 | Mostly Cloudy | FEW015 BKN028 BKN230 | 60.8 | 51.8 | 72% | 29.56 | 1001.1 | |||||||
| 05 | 08:00 | SW 12 G 20 | 15.00 | Mostly Cloudy | FEW086 BKN240 | 60.8 | 51.8 | 72% | 29.52 | 999.9 | |||||||
| 05 | 07:00 | SW 10 | 15.00 | Mostly Cloudy | FEW092 BKN130 BKN200 | 60.8 | 50 | 68% | 29.51 | 999.4 | |||||||
| 05 | 06:00 | S 13 G 20 | 15.00 | Mostly Cloudy | SCT080 BKN140 BKN230 | 60.8 | 50 | 68% | 29.49 | 998.7 | |||||||
| 05 | 05:00 | SW 13 G 18 | 15.00 | Mostly Cloudy | BKN088 | 62.6 | 50 | 64% | 29.48 | 998.4 | |||||||
| 05 | 04:00 | SW 12 G 18 | 15.00 | Mostly Cloudy | FEW080 BKN110 BKN250 | 62.6 | 50 | 64% | 29.49 | 998.8 | |||||||
| 05 | 03:00 | SW 13 | 15.00 | Mostly Cloudy | FEW070 SCT180 BKN250 | 62.6 | 50 | 64% | 29.49 | 998.7 | |||||||
| 05 | 02:00 | SW 18 G 26 | 15.00 | Mostly Cloudy | FEW065 BKN250 | 62.6 | 50 | 64% | 29.51 | 999.3 | |||||||
| 05 | 01:00 | SW 13 G 21 | 15.00 | Partly Cloudy | FEW090 SCT130 | 64.4 | 50 | 60% | 29.51 | 999.4 | |||||||
| 05 | 00:00 | SW 15 G 21 | 15.00 | Mostly Cloudy | FEW062 BKN170 | 64.4 | 50 | 60% | 29.51 | 999.3 | |||||||
| 04 | 23:00 | S 12 G 20 | 15.00 | Partly Cloudy | FEW064 SCT095 SCT250 | 64.4 | 44.6 | 49% | 29.53 | 1000.0 | |||||||
| 04 | 22:00 | S 9 | 15.00 | Partly Cloudy | FEW060 SCT250 | 66.2 | 39.2 | 37% | 29.54 | 1000.5 | |||||||
| 04 | 21:00 | S 10 G 20 | 15.00 | Partly Cloudy | FEW210 SCT260 | 68 | 39.2 | 35% | 29.53 | 1000.2 | |||||||
| 04 | 20:00 | SW 16 G 28 | 15.00 | Mostly Cloudy | FEW200 BKN260 | 68 | 37.4 | 33% | 29.54 | 1000.6 | |||||||
| 04 | 19:00 | SW 20 G 31 | 15.00 | Mostly Cloudy | FEW210 BKN260 | 69.8 | 39.2 | 33% | 29.55 | 1001.0 | |||||||
| 04 | 18:00 | SW 26 G 33 | 15.00 | Mostly Cloudy and Windy | FEW210 BKN230 | 71.6 | 39.2 | 31% | 29.56 | 1001.3 | |||||||
| 04 | 17:00 | SW 24 G 33 | 15.00 | Mostly Cloudy and Breezy | FEW015 BKN260 | 73.4 | 41 | 31% | 29.55 | 1000.7 | |||||||
| 04 | 16:00 | SW 24 G 35 | 15.00 | Mostly Cloudy and Breezy | FEW030 BKN260 | 71.6 | 42.8 | 36% | 29.57 | 1001.4 | |||||||
| Date | Time (edt) | Wind (mph) | Vis. (mi.) | Weather | Sky Cond. | Air | Dwpt | Max. | Min. | Relative Humidity | Wind Chill (°F) | Heat Index (°F) | altimeter (in) | sea level (mb) | 1 hr | 3 hr | 6 hr |
| 6 hour | |||||||||||||||||
| Temperature (ºF) | Pressure | Precipitation (in) | |||||||||||||||